Time;durP1;ratioP1;P1;durP2;ratioP2;P2;SDS_P1;SDS_P2;PMS_P1;PMS_P2;Temp;Humidity;BMP_temperature;BMP_pressure;BME280_temperature;BME280_humidity;BME280_pressure;Samples;Min_cycle;Max_cycle;Signal;HPM_P1;HPM_P2
2023/05/26 00:00:48;;;;;;;6.87;4.17;;;;;;;14.28;100.00;95234.56;5016354;28;20226;-73
2023/05/26 00:03:13;;;;;;;4.50;3.43;;;;;;;14.22;100.00;95246.72;5029430;28;20317;-73
2023/05/26 00:05:40;;;;;;;8.57;4.00;;;;;;;14.36;100.00;95243.00;5017177;28;20313;-73
2023/05/26 00:08:07;;;;;;;6.47;4.00;;;;;;;14.19;100.00;95247.16;5001021;28;20300;-73
2023/05/26 00:10:33;;;;;;;7.07;3.70;;;;;;;14.25;100.00;95242.88;5030225;28;20486;-74
2023/05/26 00:12:58;;;;;;;5.53;3.60;;;;;;;14.40;100.00;95240.78;5029628;28;20791;-74
2023/05/26 00:15:24;;;;;;;6.73;3.30;;;;;;;14.50;100.00;95233.97;5022256;28;20240;-73
2023/05/26 00:17:50;;;;;;;7.60;3.90;;;;;;;14.48;100.00;95233.38;4999442;28;20780;-73
2023/05/26 00:20:16;;;;;;;7.43;3.93;;;;;;;14.55;100.00;95230.69;5017518;28;20237;-74
2023/05/26 00:22:41;;;;;;;6.50;3.67;;;;;;;14.15;100.00;95227.53;5035288;28;20234;-73
2023/05/26 00:25:07;;;;;;;6.73;3.60;;;;;;;14.20;100.00;95225.09;5036856;28;20237;-74
2023/05/26 00:27:33;;;;;;;8.13;3.87;;;;;;;14.15;100.00;95212.56;5018339;28;20242;-73
2023/05/26 00:29:58;;;;;;;5.93;3.53;;;;;;;14.24;100.00;95221.00;5017133;28;21045;-73
2023/05/26 00:32:24;;;;;;;6.67;3.70;;;;;;;13.98;100.00;95229.88;5035894;28;20660;-74
2023/05/26 00:34:50;;;;;;;5.40;3.40;;;;;;;14.05;100.00;95229.84;5018150;28;20238;-74
2023/05/26 00:37:15;;;;;;;7.87;3.90;;;;;;;13.86;100.00;95233.41;5033159;28;20715;-74
2023/05/26 00:39:41;;;;;;;5.63;3.43;;;;;;;13.96;100.00;95231.13;5015262;28;20251;-74
2023/05/26 00:42:06;;;;;;;7.60;3.70;;;;;;;14.03;100.00;95230.06;5026658;28;20613;-73
2023/05/26 00:44:32;;;;;;;7.50;3.67;;;;;;;14.11;100.00;95224.53;5033980;28;20242;-72
2023/05/26 00:46:57;;;;;;;7.30;3.60;;;;;;;14.13;100.00;95221.69;5009085;28;20629;-74
2023/05/26 00:49:23;;;;;;;5.33;3.90;;;;;;;14.07;100.00;95215.44;5034160;28;20647;-74
2023/05/26 00:51:48;;;;;;;5.73;3.63;;;;;;;14.09;100.00;95215.25;5033252;28;20283;-73
2023/05/26 00:54:13;;;;;;;5.90;3.70;;;;;;;14.11;100.00;95221.88;5030565;28;20613;-73
2023/05/26 00:56:41;;;;;;;6.30;4.03;;;;;;;14.14;100.00;95225.91;5018226;28;20875;-74
2023/05/26 00:59:07;;;;;;;7.30;3.80;;;;;;;14.22;100.00;95225.66;5015537;28;20237;-73
2023/05/26 01:01:32;;;;;;;7.43;4.00;;;;;;;14.01;100.00;95236.56;5020707;28;20260;-74
2023/05/26 01:03:58;;;;;;;7.70;3.97;;;;;;;13.91;100.00;95233.56;5018232;28;20291;-73
2023/05/26 01:06:24;;;;;;;6.97;4.10;;;;;;;13.82;100.00;95240.13;5039565;28;20222;-73
2023/05/26 01:08:50;;;;;;;6.30;4.10;;;;;;;13.85;100.00;95237.84;5040402;28;20918;-74
2023/05/26 01:11:27;;;;;;;7.27;4.20;;;;;;;13.84;100.00;95248.59;5035469;28;20309;-73
2023/05/26 01:13:56;;;;;;;8.20;3.97;;;;;;;13.70;100.00;95249.69;5023972;28;20708;-72
2023/05/26 01:16:23;;;;;;;7.37;4.10;;;;;;;13.81;100.00;95246.38;5018668;28;20242;-73
2023/05/26 01:19:19;;;;;;;5.43;3.97;;;;;;;13.62;100.00;95248.09;5012698;28;20233;-74
2023/05/26 01:21:45;;;;;;;7.17;4.17;;;;;;;13.68;100.00;95235.94;5032050;28;20774;-74
2023/05/26 01:24:26;;;;;;;10.27;4.17;;;;;;;13.71;100.00;95246.84;5008150;28;20229;-72
2023/05/26 01:27:18;;;;;;;7.73;4.27;;;;;;;13.76;100.00;95236.50;5032618;28;20733;-74
2023/05/26 01:29:43;;;;;;;6.17;4.40;;;;;;;13.80;100.00;95234.25;5032881;28;20238;-73
2023/05/26 01:32:10;;;;;;;7.30;4.13;;;;;;;13.94;100.00;95241.06;5010542;28;21256;-73
2023/05/26 01:34:36;;;;;;;9.27;4.30;;;;;;;13.95;100.00;95237.38;5006559;28;20333;-73
2023/05/26 01:37:01;;;;;;;7.10;4.37;;;;;;;13.58;100.00;95238.22;5023864;28;20348;-72
2023/05/26 01:39:27;;;;;;;12.63;4.80;;;;;;;13.86;100.00;95238.66;5022970;28;20222;-74
2023/05/26 01:41:57;;;;;;;10.17;4.80;;;;;;;13.65;100.00;95239.00;5018128;28;20226;-73
2023/05/26 01:44:26;;;;;;;7.73;4.47;;;;;;;13.58;100.00;95238.22;5032776;28;20237;-73
2023/05/26 01:46:52;;;;;;;8.27;4.40;;;;;;;13.65;100.00;95241.63;5033149;28;20252;-74
2023/05/26 01:49:21;;;;;;;7.90;4.60;;;;;;;13.74;100.00;95245.63;5019493;28;20317;-73
2023/05/26 01:51:48;;;;;;;8.90;4.70;;;;;;;13.76;100.00;95239.13;4990728;28;20289;-73
2023/05/26 01:54:15;;;;;;;8.03;4.50;;;;;;;13.70;100.00;95241.81;5027032;28;20230;-74
2023/05/26 01:56:41;;;;;;;8.77;4.90;;;;;;;13.70;100.00;95245.25;5011271;28;20918;-73
2023/05/26 01:59:06;;;;;;;5.47;4.53;;;;;;;13.43;100.00;95244.56;5032067;28;20237;-73
2023/05/26 02:01:33;;;;;;;6.83;4.97;;;;;;;13.38;100.00;95241.75;5013867;28;20249;-74
2023/05/26 02:03:59;;;;;;;6.77;4.73;;;;;;;13.46;100.00;95246.78;5029694;28;20802;-74
2023/05/26 02:06:26;;;;;;;7.37;4.60;;;;;;;13.62;100.00;95242.03;5016265;28;20241;-74
2023/05/26 02:08:51;;;;;;;5.63;4.50;;;;;;;13.42;100.00;95252.66;5024774;28;20221;-73
2023/05/26 02:11:17;;;;;;;7.67;4.83;;;;;;;13.45;100.00;95247.78;5016830;28;20245;-72
2023/05/26 02:13:45;;;;;;;7.77;4.70;;;;;;;13.61;100.00;95245.69;5014557;28;20233;-73
2023/05/26 02:16:11;;;;;;;7.43;4.47;;;;;;;13.55;100.00;95242.06;5016940;28;20231;-74
2023/05/26 02:18:36;;;;;;;10.63;4.90;;;;;;;13.29;100.00;95234.31;5017292;28;20233;-74
2023/05/26 02:21:02;;;;;;;6.70;4.40;;;;;;;13.45;100.00;95245.16;5037134;28;20226;-74
2023/05/26 02:23:27;;;;;;;7.70;4.40;;;;;;;13.52;100.00;95248.56;5029602;28;20320;-74
2023/05/26 02:25:53;;;;;;;7.53;4.60;;;;;;;13.29;100.00;95250.06;5030278;28;20277;-73
2023/05/26 02:28:18;;;;;;;8.83;4.03;;;;;;;13.26;100.00;95248.66;5032892;28;20253;-74
2023/05/26 02:30:44;;;;;;;8.30;4.43;;;;;;;13.36;100.00;95246.41;5026190;28;20225;-74
2023/05/26 02:33:10;;;;;;;6.97;4.33;;;;;;;13.26;100.00;95245.22;5029288;28;20674;-74
2023/05/26 02:35:35;;;;;;;5.73;4.70;;;;;;;13.27;100.00;95252.91;5006056;28;20233;-74
2023/05/26 02:38:00;;;;;;;8.47;4.43;;;;;;;13.27;100.00;95252.09;5011882;28;20254;-73
2023/05/26 02:40:26;;;;;;;9.00;4.30;;;;;;;13.43;100.00;95246.38;5017215;28;20234;-74
2023/05/26 02:42:51;;;;;;;9.70;4.70;;;;;;;13.29;100.00;95237.75;5014488;28;20221;-74
2023/05/26 02:45:17;;;;;;;10.37;4.47;;;;;;;13.48;100.00;95244.75;5030772;28;20245;-74
2023/05/26 02:47:42;;;;;;;7.53;4.40;;;;;;;13.46;100.00;95245.97;5030987;28;20238;-74
2023/05/26 02:50:08;;;;;;;8.07;4.83;;;;;;;13.33;100.00;95248.63;5004474;28;20229;-74
2023/05/26 02:52:34;;;;;;;9.10;5.00;;;;;;;13.03;100.00;95242.25;5011777;28;20264;-74
2023/05/26 02:54:59;;;;;;;8.70;4.80;;;;;;;13.24;100.00;95245.44;5018619;28;20264;-73
2023/05/26 02:57:25;;;;;;;7.67;4.80;;;;;;;13.29;100.00;95244.81;5014389;28;20236;-74
2023/05/26 02:59:50;;;;;;;8.90;5.03;;;;;;;13.10;100.00;95250.94;5010203;28;20230;-73
2023/05/26 03:02:16;;;;;;;8.77;4.87;;;;;;;13.20;100.00;95251.31;5015767;28;20261;-73
2023/05/26 03:04:41;;;;;;;9.20;5.03;;;;;;;13.26;100.00;95248.66;5026992;28;20229;-73
2023/05/26 03:07:09;;;;;;;9.23;5.33;;;;;;;13.38;100.00;95259.34;5038589;28;20241;-74
2023/05/26 03:09:35;;;;;;;10.13;4.73;;;;;;;13.37;100.00;95261.16;5009153;28;20268;-74
2023/05/26 03:12:01;;;;;;;6.83;4.73;;;;;;;13.44;100.00;95269.84;5030707;28;20836;-73
2023/05/26 03:14:26;;;;;;;9.17;4.90;;;;;;;13.34;100.00;95269.47;5022197;28;20261;-74
2023/05/26 03:16:52;;;;;;;9.13;5.07;;;;;;;13.47;100.00;95265.97;5021668;28;20225;-74
2023/05/26 03:19:18;;;;;;;6.83;4.63;;;;;;;13.35;100.00;95270.28;5031051;28;20222;-74
2023/05/26 03:21:44;;;;;;;6.83;4.90;;;;;;;13.18;100.00;95272.53;5029387;28;20234;-73
2023/05/26 03:24:09;;;;;;;8.43;4.90;;;;;;;13.52;100.00;95282.75;5029883;28;20226;-73
2023/05/26 03:26:35;;;;;;;8.60;4.93;;;;;;;13.52;100.00;95276.66;5026554;28;20245;-74
2023/05/26 03:29:00;;;;;;;9.37;4.80;;;;;;;13.60;100.00;95292.22;5013498;28;22043;-71
2023/05/26 03:31:26;;;;;;;7.90;4.80;;;;;;;13.41;100.00;95290.47;5027262;28;20230;-74
2023/05/26 03:33:52;;;;;;;7.67;4.80;;;;;;;13.55;100.00;95293.84;5025702;28;20225;-74
2023/05/26 03:36:18;;;;;;;8.00;5.27;;;;;;;13.70;100.00;95289.16;5031426;28;20726;-74
2023/05/26 03:38:43;;;;;;;8.33;5.40;;;;;;;13.79;100.00;95288.69;5031310;28;20234;-73
2023/05/26 03:41:09;;;;;;;7.33;5.00;;;;;;;13.61;100.00;95288.59;5028411;28;20229;-74
2023/05/26 03:43:34;;;;;;;9.40;5.43;;;;;;;13.52;100.00;95290.63;5023936;28;20229;-74
2023/05/26 03:46:00;;;;;;;8.17;6.00;;;;;;;13.43;100.00;95289.25;5021342;28;20730;-73
2023/05/26 03:48:26;;;;;;;9.53;5.73;;;;;;;13.61;100.00;95287.78;5029359;28;21027;-73
2023/05/26 03:50:51;;;;;;;10.07;5.80;;;;;;;13.49;100.00;95290.25;5030741;28;20236;-73
2023/05/26 03:53:17;;;;;;;10.27;5.90;;;;;;;13.52;100.00;95289.03;5030849;28;20272;-73
2023/05/26 03:55:42;;;;;;;7.90;5.60;;;;;;;13.48;100.00;95288.63;5016561;28;20248;-73
2023/05/26 03:58:08;;;;;;;7.67;5.80;;;;;;;13.62;100.00;95282.31;5032005;28;20221;-74
2023/05/26 04:00:33;;;;;;;9.00;5.93;;;;;;;13.62;100.00;95287.56;5035455;28;20232;-73
2023/05/26 04:02:59;;;;;;;7.17;5.73;;;;;;;13.71;100.00;95278.41;5031372;28;20222;-74
2023/05/26 04:05:25;;;;;;;9.67;6.10;;;;;;;13.52;100.00;95282.75;5019705;28;20229;-74
2023/05/26 04:07:50;;;;;;;8.93;5.97;;;;;;;13.66;100.00;95272.19;4999363;28;20240;-72
2023/05/26 04:10:16;;;;;;;9.47;6.30;;;;;;;13.81;100.00;95275.31;5021508;28;20226;-74
2023/05/26 04:12:42;;;;;;;11.83;6.30;;;;;;;13.58;100.00;95273.22;5001586;28;20226;-74
2023/05/26 04:15:09;;;;;;;9.90;6.37;;;;;;;13.82;100.00;95264.59;5016847;28;20731;-73
2023/05/26 04:17:34;;;;;;;9.83;6.60;;;;;;;13.89;100.00;95270.63;5017773;28;20295;-75
2023/05/26 04:20:00;;;;;;;12.00;6.07;;;;;;;13.93;100.00;95269.19;5001539;28;20257;-73
2023/05/26 04:22:25;;;;;;;9.03;6.17;;;;;;;14.07;100.00;95272.53;5029507;28;20238;-74
2023/05/26 04:24:51;;;;;;;8.60;6.17;;;;;;;14.04;100.00;95273.78;5018588;28;20675;-74
2023/05/26 04:27:16;;;;;;;13.77;6.33;;;;;;;14.10;100.00;95277.38;5015932;28;20331;-73
2023/05/26 04:29:42;;;;;;;10.77;6.50;;;;;;;14.07;100.00;95280.44;5031077;28;20245;-74
2023/05/26 04:32:11;;;;;;;11.77;6.80;;;;;;;14.05;100.00;95272.75;5036664;28;20229;-74
2023/05/26 04:34:38;;;;;;;13.97;6.63;;;;;;;13.97;100.00;95274.84;5016944;28;20233;-74
2023/05/26 04:37:04;;;;;;;13.10;6.80;;;;;;;13.84;100.00;95277.53;5033848;28;20233;-74
2023/05/26 04:39:33;;;;;;;13.07;7.13;;;;;;;13.90;100.00;95287.25;5019445;28;20230;-74
2023/05/26 04:41:58;;;;;;;13.63;7.50;;;;;;;14.04;100.00;95283.50;5020450;28;21137;-73
2023/05/26 04:44:24;;;;;;;14.23;8.17;;;;;;;14.14;100.00;95278.56;5016348;28;20221;-74
2023/05/26 04:46:50;;;;;;;14.90;9.50;;;;;;;14.25;100.00;95280.53;5000858;28;20612;-74
2023/05/26 04:49:16;;;;;;;14.83;8.37;;;;;;;14.44;100.00;95282.25;5022465;28;20910;-74
2023/05/26 04:51:42;;;;;;;14.17;8.23;;;;;;;14.39;100.00;95279.47;5016479;28;20299;-73
2023/05/26 04:54:07;;;;;;;13.33;8.33;;;;;;;14.23;100.00;95276.50;5032003;28;20222;-74
2023/05/26 04:56:33;;;;;;;18.10;8.23;;;;;;;14.39;100.00;95276.81;5042145;28;20336;-72
2023/05/26 04:58:58;;;;;;;14.43;8.13;;;;;;;14.52;100.00;95274.06;5025284;28;20340;-74
2023/05/26 05:01:24;;;;;;;12.33;8.23;;;;;;;14.89;100.00;95268.91;5014724;28;20229;-73
2023/05/26 05:03:50;;;;;;;15.23;8.20;;;;;;;15.52;100.00;95266.84;5042316;28;20230;-75
2023/05/26 05:06:15;;;;;;;10.70;7.97;;;;;;;15.85;100.00;95273.31;5016468;28;20234;-73
2023/05/26 05:08:41;;;;;;;13.20;8.57;;;;;;;15.75;100.00;95262.50;5031154;28;20240;-73
2023/05/26 05:11:06;;;;;;;14.10;8.03;;;;;;;15.38;100.00;95268.81;5016518;28;20299;-72
2023/05/26 05:13:32;;;;;;;14.57;8.73;;;;;;;15.10;100.00;95268.47;5030741;28;20225;-73
2023/05/26 05:15:58;;;;;;;12.93;8.63;;;;;;;15.00;100.00;95274.25;5032871;28;20766;-73
2023/05/26 05:18:23;;;;;;;13.30;8.43;;;;;;;15.49;100.00;95273.38;5017317;28;20233;-75
2023/05/26 05:20:49;;;;;;;12.03;7.53;;;;;;;16.33;100.00;95269.81;5033831;28;20225;-73
2023/05/26 05:23:14;;;;;;;14.77;8.53;;;;;;;17.02;100.00;95269.09;5033415;28;20233;-74
2023/05/26 05:25:41;;;;;;;16.53;8.50;;;;;;;16.94;100.00;95275.53;5012828;28;20302;-74
2023/05/26 05:28:06;;;;;;;15.47;8.33;;;;;;;17.70;97.76;95274.53;5029242;28;20217;-72
2023/05/26 05:30:32;;;;;;;16.43;7.80;;;;;;;18.05;94.30;95280.56;5012384;28;20234;-74
2023/05/26 05:32:57;;;;;;;15.13;8.03;;;;;;;16.98;100.00;95279.34;5032711;28;20270;-74
2023/05/26 05:35:23;;;;;;;15.33;8.77;;;;;;;16.42;100.00;95271.91;5023847;28;20236;-74
2023/05/26 05:37:48;;;;;;;16.23;8.53;;;;;;;16.29;100.00;95271.31;5034895;28;20225;-75
2023/05/26 05:40:14;;;;;;;14.50;8.00;;;;;;;15.90;100.00;95281.38;5012068;28;20265;-74
2023/05/26 05:42:39;;;;;;;13.63;8.50;;;;;;;15.94;100.00;95277.25;5008741;28;20236;-79
2023/05/26 05:45:06;;;;;;;12.43;8.43;;;;;;;16.02;100.00;95284.88;5040549;28;20771;-75
2023/05/26 05:47:31;;;;;;;15.60;8.70;;;;;;;15.92;100.00;95281.16;5018451;28;20304;-73
2023/05/26 05:49:56;;;;;;;11.13;7.53;;;;;;;16.16;100.00;95286.31;5002344;28;20664;-74
2023/05/26 05:52:22;;;;;;;12.63;7.63;;;;;;;16.35;100.00;95294.16;5041266;28;20822;-73
2023/05/26 05:54:47;;;;;;;11.53;7.90;;;;;;;16.24;100.00;95287.81;5033156;28;20236;-75
2023/05/26 05:57:13;;;;;;;21.60;8.53;;;;;;;16.21;100.00;95292.75;5032288;28;20696;-75
2023/05/26 05:59:38;;;;;;;12.90;8.30;;;;;;;16.41;100.00;95282.69;5033424;28;20269;-74
2023/05/26 06:02:04;;;;;;;12.77;8.27;;;;;;;16.38;100.00;95289.25;5033124;28;20466;-74
2023/05/26 06:04:30;;;;;;;14.93;8.13;;;;;;;16.39;100.00;95287.38;5033831;28;20225;-74
2023/05/26 06:06:56;;;;;;;14.83;8.00;;;;;;;16.54;100.00;95277.22;5018454;28;20218;-74
2023/05/26 06:09:22;;;;;;;13.83;7.60;;;;;;;16.41;100.00;95282.69;5020165;28;20225;-75
2023/05/26 06:11:48;;;;;;;15.33;8.17;;;;;;;16.38;100.00;95277.88;5007996;28;20222;-75
2023/05/26 06:14:13;;;;;;;20.07;8.50;;;;;;;16.65;100.00;95277.25;5035527;28;20221;-74
2023/05/26 06:16:38;;;;;;;19.43;9.53;;;;;;;16.76;100.00;95276.47;5014469;28;20292;-75
2023/05/26 06:19:04;;;;;;;17.63;9.63;;;;;;;16.66;100.00;95280.69;5033942;28;20230;-74
2023/05/26 06:21:29;;;;;;;14.90;9.27;;;;;;;16.50;100.00;95291.91;5006090;28;20234;-74
2023/05/26 06:23:58;;;;;;;13.67;9.13;;;;;;;16.64;100.00;95288.06;5041803;28;20447;-74
2023/05/26 06:26:25;;;;;;;16.17;9.70;;;;;;;16.63;100.00;95299.66;5018641;28;20230;-74
2023/05/26 06:28:50;;;;;;;15.87;9.90;;;;;;;16.63;100.00;95300.47;5034406;28;20232;-73
2023/05/26 06:31:16;;;;;;;19.73;9.40;;;;;;;16.58;100.00;95300.34;5031856;28;20308;-75
2023/05/26 06:33:42;;;;;;;17.03;9.87;;;;;;;16.78;100.00;95298.19;5022997;28;20236;-75
2023/05/26 06:36:07;;;;;;;18.97;10.07;;;;;;;16.92;100.00;95297.97;5030728;28;20233;-75
2023/05/26 06:38:33;;;;;;;16.30;9.97;;;;;;;17.03;100.00;95297.97;5031760;28;20259;-75
2023/05/26 06:40:58;;;;;;;19.63;9.87;;;;;;;17.11;100.00;95302.91;5031726;28;20217;-75
2023/05/26 06:43:24;;;;;;;16.83;9.77;;;;;;;16.95;100.00;95303.63;5039808;28;20712;-74
2023/05/26 06:45:49;;;;;;;17.27;9.37;;;;;;;16.68;100.00;95289.19;5032214;28;20226;-74
2023/05/26 06:48:16;;;;;;;17.20;9.90;;;;;;;17.04;100.00;95296.13;5033052;28;20228;-75
2023/05/26 06:50:41;;;;;;;14.13;9.77;;;;;;;17.14;100.00;95293.72;5036264;28;20233;-74
2023/05/26 06:53:07;;;;;;;17.93;10.20;;;;;;;17.14;100.00;95294.53;5031484;28;20332;-73
2023/05/26 06:55:32;;;;;;;17.87;10.30;;;;;;;17.30;100.00;95293.81;5025783;28;20255;-73
2023/05/26 06:57:58;;;;;;;22.20;10.10;;;;;;;17.22;100.00;95291.53;5014102;28;20234;-73
2023/05/26 07:00:23;;;;;;;20.47;10.80;;;;;;;17.24;100.00;95286.78;5013574;28;20311;-74
2023/05/26 07:02:49;;;;;;;16.97;10.20;;;;;;;17.17;100.00;95288.75;5011305;28;20229;-74
2023/05/26 07:05:14;;;;;;;19.00;10.90;;;;;;;17.11;100.00;95289.69;5023439;28;20238;-72
2023/05/26 07:07:39;;;;;;;16.20;9.33;;;;;;;17.03;99.48;95287.38;4997563;28;20230;-73
2023/05/26 07:10:05;;;;;;;16.60;9.10;;;;;;;17.30;100.00;95288.53;4991102;28;20238;-74
2023/05/26 07:12:31;;;;;;;15.37;8.90;;;;;;;17.57;98.98;95293.34;5010476;28;20227;-73
2023/05/26 07:14:56;;;;;;;13.97;9.10;;;;;;;17.60;97.56;95288.38;4986317;28;20237;-74
2023/05/26 07:17:22;;;;;;;18.77;9.23;;;;;;;17.37;96.63;95288.41;5005335;28;20227;-74
2023/05/26 07:19:47;;;;;;;16.30;9.13;;;;;;;17.70;97.70;95291.25;5001295;28;20762;-74
2023/05/26 07:22:13;;;;;;;19.87;9.07;;;;;;;17.66;97.77;95290.09;5019596;28;20229;-74
2023/05/26 07:24:38;;;;;;;20.67;9.97;;;;;;;17.84;98.50;95297.88;5017580;28;20686;-73
2023/05/26 07:27:04;;;;;;;19.33;9.73;;;;;;;18.01;97.69;95296.09;5012097;28;20226;-74
2023/05/26 07:29:30;;;;;;;18.87;9.57;;;;;;;18.07;98.11;95289.06;5010357;28;20237;-73
2023/05/26 07:31:55;;;;;;;20.03;10.43;;;;;;;18.10;98.16;95293.91;5015746;28;20217;-73
2023/05/26 07:34:21;;;;;;;17.13;10.20;;;;;;;18.21;99.95;95295.69;5014933;28;20380;-74
2023/05/26 07:36:46;;;;;;;18.53;10.13;;;;;;;18.36;98.10;95290.66;5014190;28;20235;-74
2023/05/26 07:39:12;;;;;;;19.60;11.10;;;;;;;18.36;96.29;95292.50;5010628;28;20226;-71
2023/05/26 07:41:37;;;;;;;17.03;11.13;;;;;;;18.46;95.40;95292.72;4992253;28;20237;-74
2023/05/26 07:44:03;;;;;;;19.80;10.47;;;;;;;18.48;99.83;95291.44;5005185;28;20239;-74
2023/05/26 07:46:29;;;;;;;21.13;12.40;;;;;;;18.62;96.30;95291.94;4995221;28;20232;-74
2023/05/26 07:48:54;;;;;;;19.23;11.87;;;;;;;18.57;97.84;95284.69;5028745;28;20226;-74
2023/05/26 07:51:20;;;;;;;20.67;11.53;;;;;;;18.53;98.00;95288.84;5040736;28;20248;-75
2023/05/26 07:53:45;;;;;;;18.90;11.67;;;;;;;18.65;97.46;95272.91;5024018;28;20272;-74
2023/05/26 07:56:10;;;;;;;22.87;10.93;;;;;;;18.53;94.84;95285.41;5006585;28;20229;-73
2023/05/26 07:58:38;;;;;;;21.83;10.50;;;;;;;18.46;97.57;95280.25;5024838;28;20279;-74
2023/05/26 08:01:06;;;;;;;17.30;10.07;;;;;;;18.43;98.28;95285.22;5026589;28;20634;-74
2023/05/26 08:03:33;;;;;;;22.13;10.87;;;;;;;18.40;99.69;95277.72;5018599;28;20221;-74
2023/05/26 08:05:58;;;;;;;19.63;10.53;;;;;;;18.61;96.46;95274.41;5017454;28;20244;-75
2023/05/26 08:08:24;;;;;;;14.10;9.50;;;;;;;18.91;94.04;95280.22;5030624;28;20864;-73
2023/05/26 08:11:36;;;;;;;20.33;10.20;;;;;;;19.16;93.29;95279.75;5024653;28;20241;-76
2023/05/26 08:14:01;;;;;;;21.07;10.77;;;;;;;19.24;94.43;95274.06;5007118;28;20287;-74
2023/05/26 08:16:27;;;;;;;20.30;11.63;;;;;;;19.37;94.02;95263.91;5003842;28;20229;-75
2023/05/26 08:18:53;;;;;;;28.73;12.27;;;;;;;19.53;93.74;95266.78;5034513;28;20225;-75
2023/05/26 08:21:18;;;;;;;21.07;11.57;;;;;;;19.67;95.40;95263.50;5000612;28;20835;-76
2023/05/26 08:23:44;;;;;;;19.53;11.37;;;;;;;19.78;95.63;95272.38;5010590;28;20227;-75
2023/05/26 08:26:10;;;;;;;19.20;10.37;;;;;;;20.01;91.54;95264.94;4988081;28;20758;-73
2023/05/26 08:28:35;;;;;;;23.27;11.17;;;;;;;19.79;93.91;95266.84;5004313;28;20751;-73
2023/05/26 08:31:01;;;;;;;20.80;11.43;;;;;;;19.83;91.84;95261.81;5015904;28;20300;-75
2023/05/26 08:33:26;;;;;;;19.90;11.23;;;;;;;20.03;89.95;95265.53;4996635;28;20226;-74
2023/05/26 08:35:52;;;;;;;16.93;10.73;;;;;;;20.08;89.67;95254.91;5016200;28;20680;-74
2023/05/26 08:38:17;;;;;;;18.30;11.00;;;;;;;20.10;90.29;95249.38;4987227;28;20226;-74
2023/05/26 08:40:42;;;;;;;16.77;10.13;;;;;;;20.21;89.91;95252.91;5016114;28;20609;-73
2023/05/26 08:43:09;;;;;;;16.47;11.10;;;;;;;20.22;88.08;95249.22;5000684;28;20944;-74
2023/05/26 08:45:35;;;;;;;16.17;9.93;;;;;;;20.36;90.17;95253.91;5004489;28;20773;-80
2023/05/26 08:48:01;;;;;;;18.93;10.20;;;;;;;20.47;90.22;95257.44;4994323;28;20234;-82
2023/05/26 08:50:32;;;;;;;15.67;9.00;;;;;;;20.26;90.37;95266.28;5010269;28;20230;-81
2023/05/26 08:53:00;;;;;;;15.70;9.27;;;;;;;20.11;90.19;95269.56;5001218;28;20226;-81
2023/05/26 08:55:26;;;;;;;15.37;9.50;;;;;;;19.64;91.20;95268.50;4984003;28;20306;-80
2023/05/26 08:57:51;;;;;;;17.47;10.07;;;;;;;19.55;91.62;95260.16;4998477;28;20230;-82
2023/05/26 09:00:17;;;;;;;16.97;9.10;;;;;;;19.54;92.85;95258.53;4997178;28;20226;-79
2023/05/26 09:02:43;;;;;;;14.03;9.17;;;;;;;19.55;92.69;95254.84;5013237;28;20252;-80
2023/05/26 09:05:09;;;;;;;15.77;9.70;;;;;;;19.40;91.37;95265.28;4997517;28;20685;-80
2023/05/26 09:07:34;;;;;;;17.63;9.53;;;;;;;19.35;93.50;95252.72;5021842;28;21045;-80
2023/05/26 09:10:23;;;;;;;16.37;10.00;;;;;;;19.41;95.52;95246.47;4991617;28;20259;-80
2023/05/26 09:12:49;;;;;;;20.17;13.07;;;;;;;19.38;94.08;95252.25;5014151;28;20241;-81
2023/05/26 09:15:21;;;;;;;18.87;13.73;;;;;;;19.69;94.40;95242.00;5032781;28;20637;-82
2023/05/26 09:17:48;;;;;;;22.00;13.23;;;;;;;20.10;94.88;95241.41;5021835;28;20226;-79
2023/05/26 09:20:13;;;;;;;18.97;10.83;;;;;;;19.88;91.38;95246.75;5012570;28;20237;-82
2023/05/26 09:22:39;;;;;;;19.73;12.53;;;;;;;20.40;91.47;95241.72;5012098;28;20230;-82
2023/05/26 09:25:05;;;;;;;19.23;12.50;;;;;;;20.53;92.62;95251.16;5011199;28;20234;-81
2023/05/26 09:27:31;;;;;;;17.53;9.50;;;;;;;20.48;89.33;95256.41;4999736;28;20310;-81
2023/05/26 09:30:00;;;;;;;12.53;8.10;;;;;;;20.30;88.70;95262.09;5015742;28;20275;-81
2023/05/26 09:32:28;;;;;;;12.60;7.90;;;;;;;20.26;89.18;95256.47;5005877;28;20221;-85
2023/05/26 09:35:00;;;;;;;14.90;7.78;;;;;;;20.09;87.09;95261.84;5016819;28;20217;-83
2023/05/26 09:37:28;;;;;;;15.30;8.80;;;;;;;19.87;88.73;95255.75;5009699;28;20219;-81
2023/05/26 09:39:54;;;;;;;14.97;8.20;;;;;;;19.88;90.73;95253.91;5007883;28;20258;-82
2023/05/26 09:42:19;;;;;;;12.75;8.27;;;;;;;19.72;91.55;95254.78;4998492;28;20257;-83
2023/05/26 09:44:50;;;;;;;14.77;7.77;;;;;;;19.68;92.60;95246.50;5007367;28;20619;-82
2023/05/26 09:47:20;;;;;;;11.47;7.37;;;;;;;19.61;92.66;95245.09;5017661;28;20301;-81
2023/05/26 09:49:45;;;;;;;13.07;7.60;;;;;;;19.35;93.33;95249.25;5047951;28;20238;-83
2023/05/26 09:52:11;;;;;;;13.27;7.13;;;;;;;19.45;94.08;95254.72;5010145;28;20235;-82
2023/05/26 09:54:36;;;;;;;13.77;8.57;;;;;;;19.37;93.79;95250.63;5015171;28;20230;-83
2023/05/26 09:57:04;;;;;;;13.80;7.93;;;;;;;19.31;95.93;95251.59;5012301;28;20226;-83
2023/05/26 09:59:37;;;;;;;12.70;7.57;;;;;;;19.28;95.48;95256.56;5000445;28;20284;-83
2023/05/26 10:02:05;;;;;;;15.00;8.13;;;;;;;19.25;96.17;95259.75;5013164;28;20211;-81
2023/05/26 10:04:30;;;;;;;15.50;8.73;;;;;;;19.29;96.53;95263.50;5013574;28;20658;-82
2023/05/26 10:06:56;;;;;;;16.13;9.40;;;;;;;19.20;96.90;95254.38;5013733;28;20277;-81
2023/05/26 10:09:22;;;;;;;14.07;7.23;;;;;;;19.15;96.72;95259.59;4983155;28;20230;-82
2023/05/26 10:11:48;;;;;;;12.37;6.30;;;;;;;18.98;95.41;95253.50;5017140;28;20240;-81
2023/05/26 10:14:14;;;;;;;10.23;5.60;;;;;;;19.03;94.18;95250.94;4983504;28;20730;-84
2023/05/26 10:16:40;;;;;;;8.03;4.60;;;;;;;18.99;89.23;95257.75;5026776;28;20322;-79
2023/05/26 10:19:05;;;;;;;7.60;4.63;;;;;;;18.91;86.18;95259.00;4988971;28;20231;-84
2023/05/26 10:21:39;;;;;;;6.93;4.50;;;;;;;18.89;86.95;95255.75;4995877;28;20237;-82
2023/05/26 10:24:06;;;;;;;7.30;4.13;;;;;;;18.90;87.44;95251.25;5013619;28;20275;-80
2023/05/26 10:26:50;;;;;;;7.40;4.60;;;;;;;18.95;88.41;95246.84;5000095;28;20635;-83
2023/05/26 10:29:17;;;;;;;7.33;4.60;;;;;;;19.01;87.21;95243.19;5031157;28;20333;-82
2023/05/26 10:31:43;;;;;;;9.10;4.60;;;;;;;19.02;84.61;95241.34;5020048;28;20241;-82
2023/05/26 10:34:38;;;;;;;6.03;4.03;;;;;;;19.10;85.34;95246.25;5033027;28;20360;-82
2023/05/26 10:37:12;;;;;;;5.83;4.10;;;;;;;19.13;83.64;95241.25;5031243;28;20237;-80
2023/05/26 10:39:37;;;;;;;7.67;4.17;;;;;;;19.10;84.12;95239.09;5018322;28;20321;-82
2023/05/26 10:42:15;;;;;;;7.33;4.17;;;;;;;18.97;83.18;95230.66;5021680;28;20238;-81
2023/05/26 10:44:44;;;;;;;8.40;4.07;;;;;;;18.96;84.09;95232.53;5032951;28;20319;-81
2023/05/26 10:47:14;;;;;;;7.27;4.37;;;;;;;19.01;83.13;95234.44;5009941;28;20268;-79
2023/05/26 10:49:39;;;;;;;8.67;4.33;;;;;;;19.05;86.23;95230.25;5023182;28;20250;-81
2023/05/26 10:52:12;;;;;;;8.93;4.90;;;;;;;19.13;86.39;95227.19;5047433;28;20228;-79
2023/05/26 10:54:37;;;;;;;6.00;4.30;;;;;;;18.95;91.77;95227.47;5020197;28;20205;-80
2023/05/26 10:57:03;;;;;;;7.10;4.33;;;;;;;18.66;92.69;95219.59;5028072;28;20226;-83
2023/05/26 10:59:33;;;;;;;9.60;4.23;;;;;;;18.35;96.37;95212.19;5020817;28;20299;-90
2023/05/26 11:02:03;;;;;;;7.97;3.93;;;;;;;18.17;94.20;95212.41;5034057;28;20228;-87
2023/05/26 11:04:47;;;;;;;10.97;4.33;;;;;;;18.20;100.00;95214.56;5023038;28;20579;-88
2023/05/26 11:07:26;;;;;;;8.33;4.30;;;;;;;18.21;97.65;95210.06;5000452;28;20388;-83
2023/05/26 11:10:07;;;;;;;6.47;4.03;;;;;;;18.46;95.23;95206.03;5015151;28;20348;-83
2023/05/26 11:12:36;;;;;;;6.83;4.30;;;;;;;18.56;94.17;95214.16;5032847;28;20236;-81
2023/05/26 11:15:30;;;;;;;5.37;4.00;;;;;;;18.61;89.81;95216.88;5010947;28;20257;-83
2023/05/26 11:18:03;;;;;;;6.27;4.03;;;;;;;18.67;89.46;95217.75;5040837;28;20237;-83
2023/05/26 11:20:31;;;;;;;6.00;4.60;;;;;;;18.72;89.65;95220.50;5015781;28;20614;-82